createdAt,value
2018-06-22T00:01:07.361Z,9.00
2018-06-22T00:03:36.558Z,11.00
2018-06-22T00:06:05.819Z,8.70
2018-06-22T00:08:35.464Z,12.77
2018-06-22T00:11:04.685Z,8.87
2018-06-22T00:13:33.862Z,7.50
2018-06-22T00:16:03.080Z,7.60
2018-06-22T00:18:32.319Z,9.53
2018-06-22T00:21:01.491Z,9.57
2018-06-22T00:23:30.733Z,10.67
2018-06-22T00:25:59.990Z,11.93
2018-06-22T00:28:29.208Z,5.77
2018-06-22T00:30:58.395Z,10.93
2018-06-22T00:33:27.567Z,8.90
2018-06-22T00:35:56.722Z,9.77
2018-06-22T00:38:26.327Z,9.67
2018-06-22T00:40:55.556Z,10.67
2018-06-22T00:43:24.772Z,8.73
2018-06-22T00:45:53.620Z,10.67
2018-06-22T00:48:22.674Z,16.07
2018-06-22T00:50:51.877Z,8.00
2018-06-22T00:53:32.339Z,11.20
2018-06-22T00:56:01.510Z,8.17
2018-06-22T00:58:30.779Z,10.50
2018-06-22T01:00:59.955Z,8.33
2018-06-22T01:03:29.151Z,11.20
2018-06-22T01:05:58.331Z,7.40
2018-06-22T01:08:27.554Z,6.90
2018-06-22T01:10:56.438Z,11.43
2018-06-22T01:13:25.489Z,8.00
2018-06-22T01:15:54.747Z,14.23
2018-06-22T01:18:23.950Z,14.73
2018-06-22T01:20:53.126Z,9.90
2018-06-22T01:23:22.306Z,8.33
2018-06-22T01:25:51.563Z,8.37
2018-06-22T01:28:20.739Z,12.20
2018-06-22T01:30:49.988Z,7.33
2018-06-22T01:33:19.158Z,12.27
2018-06-22T01:35:48.394Z,10.90
2018-06-22T01:38:17.546Z,9.63
2018-06-22T01:40:46.425Z,9.80
2018-06-22T01:43:15.467Z,11.30
2018-06-22T01:45:44.647Z,6.43
2018-06-22T01:48:13.907Z,8.77
2018-06-22T01:50:43.067Z,10.60
2018-06-22T01:53:12.246Z,8.70
2018-06-22T01:55:41.406Z,9.37
2018-06-22T01:58:10.939Z,8.37
2018-06-22T02:00:40.117Z,12.57
2018-06-22T02:03:09.414Z,9.93
2018-06-22T02:05:38.628Z,10.40
2018-06-22T02:08:07.839Z,10.57
2018-06-22T02:10:37.315Z,7.03
2018-06-22T02:13:06.547Z,11.10
2018-06-22T02:15:35.706Z,13.07
2018-06-22T02:18:05.163Z,8.97
2018-06-22T02:20:34.356Z,7.87
2018-06-22T02:23:03.620Z,10.23
2018-06-22T02:25:32.793Z,8.30
2018-06-22T02:28:01.967Z,10.63
2018-06-22T02:30:31.175Z,7.47
2018-06-22T02:33:00.345Z,5.63
2018-06-22T02:35:29.586Z,10.23
2018-06-22T02:37:58.804Z,10.07
2018-06-22T02:40:28.014Z,12.63
2018-06-22T02:42:57.256Z,9.77
2018-06-22T02:45:26.431Z,11.00
2018-06-22T02:47:55.676Z,6.63
2018-06-22T02:50:24.868Z,11.33
2018-06-22T02:52:54.104Z,8.03
2018-06-22T02:55:23.299Z,12.17
2018-06-22T02:57:52.474Z,6.27
2018-06-22T03:00:21.676Z,13.83
2018-06-22T03:02:50.880Z,7.57
2018-06-22T03:05:20.044Z,11.13
2018-06-22T03:07:49.254Z,10.30
2018-06-22T03:10:18.410Z,13.57
2018-06-22T03:12:47.650Z,10.73
2018-06-22T03:15:16.971Z,9.77
2018-06-22T03:17:46.199Z,7.50
2018-06-22T03:20:15.812Z,5.73
2018-06-22T03:22:45.021Z,6.50
2018-06-22T03:25:14.212Z,8.47
2018-06-22T03:27:43.626Z,11.83
2018-06-22T03:30:12.888Z,11.10
2018-06-22T03:32:42.124Z,5.90
2018-06-22T03:35:12.161Z,14.53
2018-06-22T03:37:41.425Z,8.77
2018-06-22T03:40:10.631Z,9.90
2018-06-22T03:42:39.794Z,8.77
2018-06-22T03:45:09.027Z,9.00
2018-06-22T03:47:38.195Z,11.90
2018-06-22T03:50:07.466Z,12.33
2018-06-22T03:52:36.653Z,8.73
2018-06-22T03:55:05.835Z,9.97
2018-06-22T03:57:35.024Z,9.13
2018-06-22T04:00:04.367Z,9.53
2018-06-22T04:02:33.608Z,9.30
2018-06-22T04:05:02.827Z,10.87
2018-06-22T04:07:31.981Z,9.67
2018-06-22T04:10:01.163Z,4.30
2018-06-22T04:12:30.328Z,6.90
2018-06-22T04:14:59.501Z,8.00
2018-06-22T04:17:28.696Z,8.87
2018-06-22T04:19:57.911Z,6.67
2018-06-22T04:22:27.090Z,7.67
2018-06-22T04:24:56.292Z,6.07
2018-06-22T04:27:26.268Z,7.30
2018-06-22T04:29:55.480Z,6.67
2018-06-22T04:32:24.706Z,9.83
2018-06-22T04:34:53.917Z,9.77
2018-06-22T04:37:23.407Z,9.77
2018-06-22T04:39:52.684Z,9.47
2018-06-22T04:42:22.267Z,9.70
2018-06-22T04:44:51.540Z,10.53
2018-06-22T04:47:21.077Z,12.37
2018-06-22T04:49:50.530Z,11.00
2018-06-22T04:52:19.754Z,8.40
2018-06-22T04:54:48.956Z,10.70
2018-06-22T04:57:18.147Z,8.63
2018-06-22T04:59:47.375Z,8.23
2018-06-22T05:02:16.587Z,7.13
2018-06-22T05:04:45.794Z,11.57
2018-06-22T05:07:15.089Z,8.50
2018-06-22T05:09:44.339Z,6.73
2018-06-22T05:12:13.520Z,9.27
2018-06-22T05:14:42.696Z,6.67
2018-06-22T05:17:11.956Z,9.60
2018-06-22T05:19:41.123Z,10.23
2018-06-22T05:22:10.320Z,7.00
2018-06-22T05:24:39.511Z,6.30
2018-06-22T05:27:08.690Z,8.37
2018-06-22T05:29:37.875Z,7.63
2018-06-22T05:32:07.059Z,8.97
2018-06-22T05:34:36.512Z,9.43
2018-06-22T05:37:05.839Z,6.50
2018-06-22T05:39:35.024Z,6.50
2018-06-22T05:42:04.207Z,6.90
2018-06-22T05:44:33.428Z,9.90
2018-06-22T05:47:02.653Z,7.43
2018-06-22T05:49:31.864Z,7.50
2018-06-22T05:52:01.155Z,9.10
2018-06-22T05:54:30.436Z,12.30
2018-06-22T05:56:59.656Z,7.77
2018-06-22T05:59:29.187Z,7.83
2018-06-22T06:01:58.455Z,8.27
2018-06-22T06:04:27.895Z,6.80
2018-06-22T06:06:57.075Z,8.37
2018-06-22T06:09:26.295Z,11.70
2018-06-22T06:11:55.490Z,8.67
2018-06-22T06:14:24.678Z,8.47
2018-06-22T06:16:53.907Z,8.27
2018-06-22T06:19:23.095Z,12.13
2018-06-22T06:21:52.303Z,9.60
2018-06-22T06:24:21.483Z,8.07
2018-06-22T06:26:50.672Z,8.80
2018-06-22T06:29:19.851Z,9.53
2018-06-22T06:31:49.027Z,5.87
2018-06-22T06:34:18.244Z,9.07
2018-06-22T06:36:47.449Z,8.63
2018-06-22T06:39:16.633Z,8.40
2018-06-22T06:41:45.879Z,8.30
2018-06-22T06:44:15.019Z,8.87
2018-06-22T06:46:44.238Z,8.37
2018-06-22T06:49:13.463Z,9.83
2018-06-22T06:51:42.687Z,9.83
2018-06-22T06:54:11.899Z,9.03
2018-06-22T06:56:41.094Z,8.33
2018-06-22T06:59:10.331Z,9.87
2018-06-22T07:01:39.475Z,9.37
2018-06-22T07:04:08.687Z,8.43
2018-06-22T07:06:37.916Z,8.77
2018-06-22T07:09:08.205Z,8.83
2018-06-22T07:11:37.435Z,11.77
2018-06-22T07:14:06.684Z,8.83
2018-06-22T07:16:36.308Z,8.20
2018-06-22T07:19:05.523Z,8.00
2018-06-22T07:21:35.219Z,11.97
2018-06-22T07:24:04.389Z,8.73
2018-06-22T07:26:33.605Z,9.77
2018-06-22T07:29:02.779Z,12.87
2018-06-22T07:31:31.947Z,8.93
2018-06-22T07:34:01.187Z,11.23
2018-06-22T07:36:30.369Z,9.57
2018-06-22T07:39:00.055Z,11.67
2018-06-22T07:41:29.243Z,8.37
2018-06-22T07:43:58.460Z,10.60
2018-06-22T07:46:27.595Z,9.63
2018-06-22T07:48:56.850Z,10.47
2018-06-22T07:51:30.786Z,10.33
2018-06-22T07:54:00.092Z,12.30
2018-06-22T07:56:29.320Z,5.43
2018-06-22T07:58:58.669Z,11.10
2018-06-22T08:01:27.953Z,12.30
2018-06-22T08:03:57.183Z,8.73
2018-06-22T08:06:26.359Z,11.23
2018-06-22T08:08:55.592Z,11.93
2018-06-22T08:11:25.078Z,10.43
2018-06-22T08:13:54.279Z,9.27
2018-06-22T08:16:23.731Z,7.60
2018-06-22T08:18:52.963Z,7.57
2018-06-22T08:21:22.180Z,10.37
2018-06-22T08:23:51.471Z,11.10
2018-06-22T08:26:20.712Z,15.20
2018-06-22T08:28:49.917Z,9.73
2018-06-22T08:31:19.172Z,12.77
2018-06-22T08:33:48.543Z,14.83
2018-06-22T08:36:17.767Z,15.80
2018-06-22T08:38:46.957Z,11.37
2018-06-22T08:41:16.209Z,9.60
2018-06-22T08:43:45.530Z,10.73
2018-06-22T08:46:14.854Z,10.10
2018-06-22T08:48:44.010Z,8.80
2018-06-22T08:51:13.187Z,9.93
2018-06-22T08:53:42.434Z,9.27
2018-06-22T08:56:11.560Z,18.93
2018-06-22T08:58:41.301Z,9.43
2018-06-22T09:01:10.527Z,9.87
2018-06-22T09:03:39.771Z,10.00
2018-06-22T09:06:09.231Z,9.50
2018-06-22T09:08:38.454Z,11.90
2018-06-22T09:11:07.651Z,11.57
2018-06-22T09:13:36.903Z,13.63
2018-06-22T09:16:06.183Z,12.20
2018-06-22T09:18:35.428Z,14.90
2018-06-22T09:21:11.198Z,10.77
2018-06-22T09:23:40.379Z,12.30
2018-06-22T09:26:09.613Z,12.50
2018-06-22T09:28:38.845Z,9.80
2018-06-22T09:31:08.008Z,11.67
2018-06-22T09:33:37.260Z,9.30
2018-06-22T09:36:06.468Z,12.73
2018-06-22T09:38:35.731Z,13.93
2018-06-22T09:41:04.991Z,15.23
2018-06-22T09:43:34.212Z,9.23
2018-06-22T09:46:03.403Z,10.90
2018-06-22T09:48:32.748Z,13.83
2018-06-22T09:51:01.616Z,10.50
2018-06-22T09:53:30.643Z,14.63
2018-06-22T09:55:59.898Z,13.93
2018-06-22T09:58:29.098Z,13.17
2018-06-22T10:00:58.007Z,13.43
2018-06-22T10:03:27.179Z,11.83
2018-06-22T10:05:56.417Z,12.27
2018-06-22T10:08:25.271Z,11.70
2018-06-22T10:10:54.336Z,13.93
2018-06-22T10:13:23.548Z,8.47
2018-06-22T10:15:54.062Z,12.73
2018-06-22T10:18:24.759Z,12.53
2018-06-22T10:20:54.128Z,13.77
2018-06-22T10:23:23.634Z,13.23
2018-06-22T10:25:52.879Z,11.70
2018-06-22T10:28:22.099Z,12.53
2018-06-22T10:30:51.367Z,12.23
2018-06-22T10:33:20.599Z,14.93
2018-06-22T10:35:50.272Z,11.07
2018-06-22T10:38:19.562Z,11.87
2018-06-22T10:40:49.015Z,14.57
2018-06-22T10:43:17.895Z,12.97
2018-06-22T10:45:47.056Z,13.00
2018-06-22T10:48:16.282Z,11.83
2018-06-22T10:50:45.525Z,14.37
2018-06-22T10:53:14.753Z,13.47
2018-06-22T10:55:44.301Z,13.50
2018-06-22T10:58:13.554Z,12.07
2018-06-22T11:00:42.781Z,15.97
2018-06-22T11:03:12.014Z,14.70
2018-06-22T11:05:41.221Z,12.40
2018-06-22T11:08:10.583Z,14.07
2018-06-22T11:10:39.772Z,14.63
2018-06-22T11:13:08.999Z,14.30
2018-06-22T11:15:38.227Z,10.13
2018-06-22T11:18:07.490Z,10.43
2018-06-22T11:20:36.696Z,11.83
2018-06-22T11:23:06.006Z,15.93
2018-06-22T11:25:35.338Z,13.60
2018-06-22T11:28:04.587Z,14.53
2018-06-22T11:30:33.809Z,12.80
2018-06-22T11:33:03.003Z,6.23
2018-06-22T11:35:32.263Z,8.93
2018-06-22T11:38:01.153Z,7.30
2018-06-22T11:40:30.255Z,10.97
2018-06-22T11:42:59.486Z,7.57
2018-06-22T11:45:28.874Z,13.83
2018-06-22T11:47:58.376Z,12.07
2018-06-22T11:50:27.647Z,10.03
2018-06-22T11:52:56.855Z,13.10
2018-06-22T11:55:26.139Z,10.47
2018-06-22T11:57:55.726Z,10.37
2018-06-22T12:00:24.952Z,9.30
2018-06-22T12:02:54.207Z,8.80
2018-06-22T12:05:23.486Z,9.37
2018-06-22T12:07:53.323Z,5.40
2018-06-22T12:10:22.571Z,11.13
2018-06-22T12:12:51.911Z,9.50
2018-06-22T12:15:21.120Z,8.00
2018-06-22T12:17:50.376Z,8.50
2018-06-22T12:20:19.571Z,7.50
2018-06-22T12:22:49.011Z,7.43
2018-06-22T12:25:18.257Z,6.90
2018-06-22T12:27:47.497Z,14.43
2018-06-22T12:30:16.718Z,8.53
2018-06-22T12:32:45.956Z,16.40
2018-06-22T12:35:15.187Z,10.37
2018-06-22T12:37:44.411Z,12.50
2018-06-22T12:40:14.161Z,9.67
2018-06-22T12:42:43.464Z,9.00
2018-06-22T12:45:12.679Z,8.53
2018-06-22T12:47:41.982Z,7.27
2018-06-22T12:50:11.280Z,12.10
2018-06-22T12:52:40.499Z,10.13
2018-06-22T12:55:09.780Z,9.63
2018-06-22T12:57:39.115Z,9.20
2018-06-22T13:00:08.304Z,8.23
2018-06-22T13:02:37.538Z,13.83
2018-06-22T13:05:06.812Z,7.90
2018-06-22T13:07:36.116Z,9.50
2018-06-22T13:10:05.562Z,8.97
2018-06-22T13:12:34.753Z,8.93
2018-06-22T13:15:04.986Z,11.43
2018-06-22T13:17:34.247Z,6.70
2018-06-22T13:20:03.889Z,9.63
2018-06-22T13:22:33.055Z,10.87
2018-06-22T13:25:02.677Z,8.87
2018-06-22T13:27:31.940Z,10.10
2018-06-22T13:30:01.440Z,8.47
2018-06-22T13:32:30.772Z,8.60
2018-06-22T13:35:00.050Z,6.40
2018-06-22T13:37:29.326Z,8.47
2018-06-22T13:39:58.615Z,5.83
2018-06-22T13:42:27.815Z,8.10
2018-06-22T13:44:57.094Z,9.53
2018-06-22T13:47:26.359Z,11.13
2018-06-22T13:49:55.601Z,9.20
2018-06-22T13:52:24.806Z,7.47
2018-06-22T13:54:54.127Z,7.27
2018-06-22T13:57:23.376Z,6.93
2018-06-22T13:59:52.703Z,8.47
2018-06-22T14:02:21.988Z,10.30
2018-06-22T14:04:56.596Z,9.40
2018-06-22T14:07:25.859Z,9.93
2018-06-22T14:09:55.963Z,7.20
2018-06-22T14:12:25.235Z,10.90
2018-06-22T14:14:54.480Z,7.67
2018-06-22T14:17:23.843Z,11.43
2018-06-22T14:19:53.079Z,10.50
2018-06-22T14:22:22.327Z,9.63
2018-06-22T14:24:51.528Z,9.83
2018-06-22T14:27:20.733Z,8.20
2018-06-22T14:29:49.999Z,6.20
2018-06-22T14:32:19.295Z,10.17
2018-06-22T14:34:48.523Z,7.93
2018-06-22T14:37:17.767Z,8.60
2018-06-22T14:39:47.062Z,5.57
2018-06-22T14:42:16.284Z,5.83
2018-06-22T14:44:45.597Z,9.57
2018-06-22T14:47:14.855Z,9.90
2018-06-22T14:49:44.115Z,9.50
2018-06-22T14:52:13.360Z,8.17
2018-06-22T14:54:47.795Z,7.90
2018-06-22T16:13:21.871Z,3.87
2018-06-22T16:15:56.441Z,4.40
2018-06-22T16:18:31.208Z,5.23
2018-06-22T16:21:05.831Z,4.60
2018-06-22T16:23:40.372Z,4.53
2018-06-22T16:26:14.913Z,6.27
2018-06-22T16:28:44.144Z,4.47
2018-06-22T16:31:13.403Z,6.77
2018-06-22T16:33:47.744Z,5.40
2018-06-22T16:36:17.429Z,7.10
2018-06-22T16:38:46.727Z,5.07
2018-06-22T16:41:16.007Z,4.43
2018-06-22T16:43:45.379Z,4.83
2018-06-22T16:46:14.602Z,6.97
2018-06-22T16:48:43.829Z,6.00
2018-06-22T16:51:13.140Z,4.87
2018-06-22T16:53:42.376Z,6.70
2018-06-22T16:56:11.718Z,7.80
2018-06-22T16:58:41.367Z,3.17
2018-06-22T17:01:11.795Z,7.60
2018-06-22T17:03:41.047Z,5.47
2018-06-22T17:06:10.280Z,5.43
2018-06-22T17:08:44.692Z,5.33
2018-06-22T17:11:19.281Z,6.20
2018-06-22T17:13:53.818Z,4.57
2018-06-22T17:16:28.557Z,3.37
2018-06-22T17:18:59.124Z,5.50
2018-06-22T17:21:28.391Z,6.80
2018-06-22T17:23:57.655Z,4.83
2018-06-22T17:26:29.880Z,5.07
2018-06-22T17:28:59.133Z,6.03
2018-06-22T17:31:28.387Z,5.57
2018-06-22T17:33:57.639Z,4.03
2018-06-22T17:36:26.830Z,5.07
2018-06-22T17:38:56.084Z,7.10
2018-06-22T17:41:25.496Z,6.60
2018-06-22T17:43:54.753Z,4.80
2018-06-22T17:46:24.461Z,10.67
2018-06-22T17:48:53.607Z,3.83
2018-06-22T17:51:22.933Z,6.00
2018-06-22T17:53:52.188Z,6.20
2018-06-22T17:56:26.656Z,6.13
2018-06-22T17:59:01.041Z,7.57
2018-06-22T18:01:35.562Z,7.83
2018-06-22T18:04:10.412Z,5.23
2018-06-22T18:06:44.943Z,9.97
2018-06-22T18:09:19.436Z,6.27
2018-06-22T18:11:54.004Z,5.70
2018-06-22T18:14:23.368Z,8.17
2018-06-22T18:16:52.730Z,7.80
2018-06-22T18:19:22.037Z,7.53
2018-06-22T18:21:51.271Z,7.37
2018-06-22T18:24:20.667Z,10.93
2018-06-22T18:26:49.979Z,5.87
2018-06-22T18:29:19.257Z,11.83
2018-06-22T18:31:48.565Z,7.80
2018-06-22T18:34:17.831Z,6.93
2018-06-22T18:36:47.072Z,7.33
2018-06-22T18:39:16.345Z,8.57
2018-06-22T18:41:45.581Z,9.07
2018-06-22T18:44:16.450Z,10.40
2018-06-22T18:46:46.281Z,7.33
2018-06-22T18:49:15.575Z,8.13
2018-06-22T18:51:44.930Z,8.97
2018-06-22T18:55:20.261Z,6.63
2018-06-22T18:57:54.680Z,9.00
2018-06-22T19:00:29.375Z,8.43
2018-06-22T19:03:03.971Z,8.70
2018-06-22T19:05:33.275Z,8.30
2018-06-22T19:08:02.605Z,6.53
2018-06-22T19:10:31.876Z,7.47
2018-06-22T19:13:01.099Z,7.23
2018-06-22T19:15:30.748Z,12.10
2018-06-22T19:18:00.056Z,7.10
2018-06-22T19:20:29.892Z,11.00
2018-06-22T19:22:59.268Z,8.03
2018-06-22T19:25:28.559Z,8.97
2018-06-22T19:27:58.243Z,5.83
2018-06-22T19:30:27.438Z,6.47
2018-06-22T19:32:56.709Z,6.37
2018-06-22T19:35:25.966Z,7.03
2018-06-22T19:37:55.248Z,10.30
2018-06-22T19:40:24.537Z,13.80
2018-06-22T19:42:53.815Z,8.90
2018-06-22T19:45:28.322Z,7.60
2018-06-22T19:48:02.960Z,6.83
2018-06-22T19:50:37.528Z,6.73
2018-06-22T19:53:11.957Z,8.43
2018-06-22T19:55:41.507Z,7.30
2018-06-22T19:58:10.763Z,8.17
2018-06-22T20:00:40.200Z,10.93
2018-06-22T20:03:09.390Z,7.27
2018-06-22T20:05:38.662Z,7.57
2018-06-22T20:08:07.937Z,8.13
2018-06-22T20:10:37.204Z,5.47
2018-06-22T20:13:06.463Z,5.07
2018-06-22T20:15:36.180Z,7.37
2018-06-22T20:18:05.633Z,8.50
2018-06-22T20:20:34.939Z,8.57
2018-06-22T20:23:04.288Z,8.73
2018-06-22T20:25:38.889Z,8.23
2018-06-22T20:28:08.284Z,7.83
2018-06-22T20:30:38.568Z,9.90
2018-06-22T20:33:08.203Z,8.57
2018-06-22T20:35:43.730Z,7.77
2018-06-22T20:38:18.619Z,8.07
2018-06-22T20:40:53.213Z,8.43
2018-06-22T20:43:27.772Z,6.80
2018-06-22T20:45:58.586Z,7.27
2018-06-22T20:48:33.400Z,6.17
2018-06-22T20:51:02.926Z,9.37
2018-06-22T20:53:32.642Z,8.90
2018-06-22T20:56:02.222Z,8.57
2018-06-22T20:58:31.807Z,7.33
2018-06-22T21:01:01.312Z,10.93
2018-06-22T21:03:30.996Z,9.97
2018-06-22T21:06:00.417Z,10.20
2018-06-22T21:08:29.948Z,8.63
2018-06-22T21:10:59.436Z,6.90
2018-06-22T21:13:28.973Z,10.37
2018-06-22T21:15:58.513Z,9.00
2018-06-22T21:18:33.646Z,11.37
2018-06-22T21:21:08.415Z,14.10
2018-06-22T21:23:37.916Z,9.43
2018-06-22T21:26:07.488Z,12.17
2018-06-22T21:28:42.066Z,12.07
2018-06-22T21:31:16.946Z,10.70
2018-06-22T21:33:51.791Z,13.70
2018-06-22T21:36:26.469Z,14.00
2018-06-22T21:38:57.971Z,13.53
2018-06-22T21:41:27.321Z,11.53
2018-06-22T21:43:58.123Z,12.17
2018-06-22T21:46:27.512Z,11.97
2018-06-22T21:48:56.907Z,13.90
2018-06-22T21:51:26.442Z,12.50
2018-06-22T21:53:55.848Z,10.87
2018-06-22T21:56:25.780Z,15.77
2018-06-22T21:58:55.341Z,12.67
2018-06-22T22:01:24.431Z,13.70
2018-06-22T22:03:55.983Z,14.70
2018-06-22T22:06:25.529Z,14.97
2018-06-22T22:08:54.826Z,10.43
2018-06-22T22:11:28.293Z,11.00
2018-06-22T22:13:57.209Z,10.13
2018-06-22T22:16:26.292Z,16.10
2018-06-22T22:18:55.601Z,16.93
2018-06-22T22:21:25.081Z,11.73
2018-06-22T22:23:55.272Z,13.80
2018-06-22T22:26:24.719Z,16.63
2018-06-22T22:28:54.019Z,14.97
2018-06-22T22:31:23.925Z,13.70
2018-06-22T22:33:53.203Z,16.30
2018-06-22T22:36:22.533Z,16.00
2018-06-22T22:38:51.926Z,14.10
2018-06-22T22:41:21.251Z,10.07
2018-06-22T22:43:50.556Z,16.73
2018-06-22T22:46:19.927Z,15.93
2018-06-22T22:48:49.712Z,12.57
2018-06-22T22:51:19.032Z,15.73
2018-06-22T22:53:48.531Z,16.20
2018-06-22T22:56:17.871Z,16.03
2018-06-22T22:58:47.247Z,17.60
2018-06-22T23:11:01.454Z,15.33
2018-06-22T23:16:14.137Z,18.77
2018-06-22T23:18:43.583Z,16.50
2018-06-22T23:21:13.360Z,19.13
2018-06-22T23:23:42.502Z,14.57
2018-06-22T23:26:11.774Z,14.47
2018-06-22T23:28:42.381Z,14.63
2018-06-22T23:31:11.657Z,15.77
2018-06-22T23:33:41.109Z,14.97
2018-06-22T23:36:10.410Z,16.43
2018-06-22T23:38:39.601Z,15.53
2018-06-22T23:41:08.884Z,18.67
2018-06-22T23:43:38.230Z,17.43
2018-06-22T23:46:07.602Z,18.10
2018-06-22T23:48:37.696Z,17.80
2018-06-22T23:51:07.005Z,16.17
2018-06-22T23:53:36.289Z,15.53
2018-06-22T23:56:05.718Z,20.73
2018-06-22T23:58:35.091Z,17.10
